Time;durP1;ratioP1;P1;durP2;ratioP2;P2;SDS_P1;SDS_P2;PMS_P1;PMS_P2;Temp;Humidity;BMP_temperature;BMP_pressure;BME280_temperature;BME280_humidity;BME280_pressure;Samples;Min_cycle;Max_cycle;Signal;HPM_P1;HPM_P2
2023/12/19 00:01:50;;;;;;;18.30;8.63;;;;;;;-2.00;91.56;101713.16;5035261;28;20102;-85
2023/12/19 00:04:17;;;;;;;21.38;9.38;;;;;;;-1.89;91.84;101701.81;5033821;28;20046;-83
2023/12/19 00:06:44;;;;;;;20.98;10.07;;;;;;;-1.91;91.90;101700.84;5015748;28;20053;-83
2023/12/19 00:09:12;;;;;;;20.67;10.05;;;;;;;-2.07;91.87;101711.97;5034796;28;20092;-83
2023/12/19 00:11:39;;;;;;;19.35;9.63;;;;;;;-2.03;91.88;101710.44;5034945;28;20397;-88
2023/12/19 00:14:06;;;;;;;16.13;9.18;;;;;;;-2.01;91.91;101685.69;5037319;28;20130;-83
2023/12/19 00:16:33;;;;;;;15.70;8.00;;;;;;;-2.10;92.07;101686.94;5034916;28;20069;-84
2023/12/19 00:19:00;;;;;;;16.73;7.97;;;;;;;-2.10;91.97;101686.94;5035198;28;20053;-85
2023/12/19 00:21:28;;;;;;;14.57;7.72;;;;;;;-2.01;91.91;101693.41;5029517;28;20080;-83
2023/12/19 00:23:55;;;;;;;11.65;6.63;;;;;;;-2.14;91.71;101674.69;5034440;28;20049;-85
2023/12/19 00:26:22;;;;;;;15.50;8.48;;;;;;;-2.28;91.73;101658.47;5035766;28;20053;-83
2023/12/19 00:28:49;;;;;;;13.75;6.97;;;;;;;-1.81;92.45;101643.94;5019799;28;20060;-83
2023/12/19 00:31:20;;;;;;;11.35;7.28;;;;;;;-1.78;92.70;101654.38;5034333;28;20088;-84
2023/12/19 00:33:48;;;;;;;12.68;7.15;;;;;;;-1.94;92.44;101673.25;5039303;28;20046;-83
2023/12/19 00:36:19;;;;;;;13.32;6.70;;;;;;;-1.66;92.90;101679.03;5033873;28;20479;-86
2023/12/19 00:38:46;;;;;;;11.98;7.15;;;;;;;-1.77;92.49;101676.75;5031909;28;20103;-84
2023/12/19 00:41:13;;;;;;;15.38;7.82;;;;;;;-1.82;92.47;101678.19;5031856;28;20057;-85
2023/12/19 00:43:41;;;;;;;15.80;8.18;;;;;;;-1.78;92.66;101689.53;5035158;28;20056;-83
2023/12/19 00:46:08;;;;;;;13.52;8.02;;;;;;;-1.82;92.38;101688.47;5052379;28;20055;-83
2023/12/19 00:48:35;;;;;;;16.30;9.38;;;;;;;-1.86;92.90;101681.38;5028053;28;20065;-85
2023/12/19 00:51:07;;;;;;;13.57;7.50;;;;;;;-1.79;92.87;101688.63;5037778;28;20041;-82
2023/12/19 00:53:34;;;;;;;16.77;8.27;;;;;;;-1.79;92.92;101686.06;5045646;28;20056;-83
2023/12/19 00:56:01;;;;;;;14.93;7.55;;;;;;;-1.78;93.00;101679.25;5024197;28;20080;-83
2023/12/19 00:58:27;;;;;;;12.82;7.10;;;;;;;-1.79;92.84;101682.63;5019065;28;20456;-83
2023/12/19 01:00:54;;;;;;;10.70;6.63;;;;;;;-1.78;93.05;101669.81;5041152;28;20045;-83
2023/12/19 01:03:21;;;;;;;13.25;7.55;;;;;;;-1.76;92.75;101672.47;5028408;28;20115;-86
2023/12/19 01:05:48;;;;;;;12.90;7.10;;;;;;;-1.80;92.82;101680.84;5037338;28;20049;-84
2023/12/19 01:08:15;;;;;;;13.60;7.55;;;;;;;-1.76;92.96;101693.06;5020035;28;20056;-83
2023/12/19 01:10:42;;;;;;;13.50;6.78;;;;;;;-1.79;92.87;101690.34;5036706;28;20049;-87
2023/12/19 01:13:08;;;;;;;15.82;8.15;;;;;;;-1.72;92.72;101709.56;5019595;28;20061;-83
2023/12/19 01:15:35;;;;;;;16.08;8.80;;;;;;;-1.68;92.91;101708.94;5037141;28;20060;-84
2023/12/19 01:18:02;;;;;;;14.73;8.18;;;;;;;-1.73;93.08;101728.41;5040800;28;20116;-84
2023/12/19 01:20:29;;;;;;;15.70;8.63;;;;;;;-1.77;92.97;101727.31;5037614;28;20052;-84
2023/12/19 01:22:56;;;;;;;13.80;7.78;;;;;;;-1.89;92.77;101717.25;5026182;28;20053;-83
2023/12/19 01:25:23;;;;;;;17.48;8.65;;;;;;;-1.95;92.60;101722.06;5035755;28;20046;-83
2023/12/19 01:27:50;;;;;;;15.98;6.85;;;;;;;-1.93;92.73;101717.88;5037260;28;20067;-83
2023/12/19 01:30:17;;;;;;;13.80;8.20;;;;;;;-1.93;92.83;101699.84;5038479;28;20053;-83
2023/12/19 01:32:44;;;;;;;15.23;8.10;;;;;;;-1.95;92.73;101706.63;5022370;28;20054;-86
2023/12/19 01:35:11;;;;;;;14.20;7.03;;;;;;;-1.88;92.30;101703.59;5036851;28;20081;-83
2023/12/19 01:37:38;;;;;;;14.25;8.13;;;;;;;-1.98;92.24;101706.44;5044630;28;20059;-85
2023/12/19 01:40:07;;;;;;;11.38;6.60;;;;;;;-1.97;92.07;101706.53;5038279;28;20053;-83
2023/12/19 01:42:34;;;;;;;15.43;8.50;;;;;;;-2.00;91.93;101714.06;5018473;28;20124;-86
2023/12/19 01:45:12;;;;;;;14.10;7.68;;;;;;;-1.97;91.95;101705.63;5042103;28;20055;-83
2023/12/19 01:47:41;;;;;;;15.80;8.80;;;;;;;-1.98;91.70;101702.19;5016742;28;20053;-83
2023/12/19 01:50:08;;;;;;;14.20;8.30;;;;;;;-2.16;91.64;101691.75;5020864;28;20071;-84
2023/12/19 01:52:41;;;;;;;17.38;9.38;;;;;;;-2.16;91.80;101684.03;5045799;28;20049;-84
2023/12/19 01:55:09;;;;;;;10.98;7.03;;;;;;;-2.18;91.38;101688.19;5034889;28;20492;-84
2023/12/19 01:57:36;;;;;;;12.93;7.88;;;;;;;-2.20;90.94;101692.38;5038854;28;20049;-83
2023/12/19 02:00:04;;;;;;;12.75;7.43;;;;;;;-2.17;91.36;101684.81;5034758;28;20088;-85
2023/12/19 02:02:32;;;;;;;15.57;9.15;;;;;;;-2.15;91.49;101683.22;5037985;28;20063;-83
2023/12/19 02:04:59;;;;;;;16.85;9.27;;;;;;;-2.26;91.68;101694.56;5018780;28;20041;-84
2023/12/19 02:07:26;;;;;;;11.55;7.00;;;;;;;-2.08;91.74;101709.31;5017230;28;20105;-83
2023/12/19 02:09:53;;;;;;;14.88;8.95;;;;;;;-2.13;91.85;101712.50;5032034;28;20369;-85
2023/12/19 02:12:21;;;;;;;16.48;8.52;;;;;;;-2.18;92.10;101698.47;5036889;28;20107;-83
2023/12/19 02:14:48;;;;;;;14.02;7.80;;;;;;;-2.25;92.28;101701.50;5037699;28;20076;-82
2023/12/19 02:17:16;;;;;;;16.88;9.23;;;;;;;-2.15;92.26;101703.78;5042752;28;20132;-83
2023/12/19 02:19:44;;;;;;;18.58;9.70;;;;;;;-2.24;92.48;101700.69;5033415;28;20072;-83
2023/12/19 02:22:11;;;;;;;15.43;8.65;;;;;;;-2.20;92.22;101706.91;5033314;28;20107;-84
2023/12/19 02:24:39;;;;;;;15.82;8.65;;;;;;;-2.24;92.16;101705.84;5042285;28;20045;-83
2023/12/19 02:27:06;;;;;;;14.30;8.85;;;;;;;-2.27;92.37;101691.13;5055576;28;20080;-83
2023/12/19 02:29:33;;;;;;;16.00;8.52;;;;;;;-2.25;92.51;101680.91;5055085;28;20069;-85
2023/12/19 02:32:00;;;;;;;14.95;8.32;;;;;;;-2.26;92.41;101684.28;5037715;28;20065;-83
2023/12/19 02:34:27;;;;;;;13.20;7.82;;;;;;;-2.25;92.57;101685.19;5037330;28;20103;-84
2023/12/19 02:36:54;;;;;;;14.48;8.30;;;;;;;-2.20;92.32;101688.88;5042868;28;20164;-83
2023/12/19 02:39:21;;;;;;;13.63;8.57;;;;;;;-2.27;92.11;101697.97;5039235;28;20073;-85
2023/12/19 02:41:48;;;;;;;15.32;9.20;;;;;;;-2.30;92.46;101698.66;5036619;28;20482;-83
2023/12/19 02:44:15;;;;;;;13.50;7.63;;;;;;;-2.28;92.39;101701.31;5027943;28;20049;-85
2023/12/19 02:46:42;;;;;;;17.92;8.82;;;;;;;-2.28;92.42;101701.31;5016047;28;20053;-88
2023/12/19 02:49:09;;;;;;;14.27;7.93;;;;;;;-2.19;92.35;101695.81;5035720;28;20049;-83
2023/12/19 02:51:36;;;;;;;13.77;7.43;;;;;;;-2.28;92.18;101701.31;5028764;28;20060;-85
2023/12/19 02:54:03;;;;;;;14.02;7.47;;;;;;;-2.23;91.79;101693.88;5020377;28;20108;-83
2023/12/19 02:56:32;;;;;;;15.48;8.48;;;;;;;-2.27;92.11;101682.53;5025118;28;20050;-85
2023/12/19 02:58:58;;;;;;;17.02;9.50;;;;;;;-2.33;92.02;101689.88;5019190;28;20079;-83
2023/12/19 03:01:25;;;;;;;20.13;10.00;;;;;;;-2.39;91.92;101689.53;5035671;28;20070;-85
2023/12/19 03:03:52;;;;;;;16.75;9.70;;;;;;;-2.39;92.08;101698.16;5038988;28;20099;-84
2023/12/19 03:06:21;;;;;;;16.08;9.40;;;;;;;-2.37;92.11;101705.94;5023089;28;20117;-83
2023/12/19 03:08:48;;;;;;;15.93;8.93;;;;;;;-2.24;92.58;101715.25;5033249;28;20099;-87
2023/12/19 03:11:15;;;;;;;17.05;9.32;;;;;;;-2.28;92.58;101697.06;5015634;28;20053;-83
2023/12/19 03:13:42;;;;;;;14.60;8.70;;;;;;;-2.35;92.74;101696.63;5033051;28;20049;-83
2023/12/19 03:16:08;;;;;;;19.35;8.82;;;;;;;-2.31;92.21;101691.75;5029984;28;20053;-83
2023/12/19 03:18:35;;;;;;;13.73;8.25;;;;;;;-2.44;92.18;101673.84;5031512;28;20038;-83
2023/12/19 03:21:02;;;;;;;18.45;9.48;;;;;;;-2.43;91.88;101675.63;5022919;28;20044;-84
2023/12/19 03:23:29;;;;;;;12.85;7.47;;;;;;;-2.41;91.63;101662.84;5032588;28;20084;-84
2023/12/19 03:25:56;;;;;;;19.05;9.25;;;;;;;-2.53;91.61;101674.19;5023122;28;20043;-84
2023/12/19 03:28:23;;;;;;;15.13;8.68;;;;;;;-2.50;91.70;101664.09;5053877;28;20049;-85
2023/12/19 03:30:51;;;;;;;16.30;8.60;;;;;;;-2.57;91.28;101671.38;5035785;28;20048;-84
2023/12/19 03:33:18;;;;;;;12.52;7.50;;;;;;;-2.58;91.21;101672.16;5031992;28;20061;-82
2023/12/19 03:35:45;;;;;;;14.52;8.40;;;;;;;-2.57;91.20;101677.38;5037528;28;20053;-83
2023/12/19 03:38:11;;;;;;;14.23;7.93;;;;;;;-2.50;91.29;101673.50;5017314;28;20090;-84
2023/12/19 03:40:39;;;;;;;15.45;8.30;;;;;;;-2.60;91.40;101677.22;5016295;28;20053;-84
2023/12/19 03:43:05;;;;;;;16.70;9.07;;;;;;;-2.63;91.53;101657.34;5044336;28;20063;-82
2023/12/19 03:45:32;;;;;;;12.35;6.78;;;;;;;-2.70;91.11;101651.78;5034911;28;20053;-83
2023/12/19 03:47:59;;;;;;;15.88;8.60;;;;;;;-2.70;91.08;101651.78;5034492;28;20046;-82
2023/12/19 03:50:26;;;;;;;11.95;6.72;;;;;;;-2.71;91.05;101638.06;5039674;28;20045;-82
2023/12/19 03:52:53;;;;;;;14.25;8.82;;;;;;;-2.75;91.20;101635.19;5034219;28;20049;-83
2023/12/19 03:55:20;;;;;;;18.05;9.32;;;;;;;-2.83;91.35;101633.06;5034890;28;20072;-82
2023/12/19 03:57:47;;;;;;;15.32;8.40;;;;;;;-2.71;91.35;101640.63;5040866;28;20167;-83
2023/12/19 04:00:14;;;;;;;15.45;8.35;;;;;;;-2.83;90.93;101650.16;5046552;28;20050;-82
2023/12/19 04:02:40;;;;;;;14.80;8.32;;;;;;;-2.83;91.37;101655.31;5021680;28;20045;-82
2023/12/19 04:05:08;;;;;;;37.80;21.63;;;;;;;-2.70;92.06;101649.22;5036126;28;20092;-82
2023/12/19 04:07:35;;;;;;;28.77;17.33;;;;;;;-2.70;92.22;101638.94;5020610;28;20113;-82
2023/12/19 04:10:01;;;;;;;23.10;12.85;;;;;;;-2.84;91.97;101644.16;5036979;28;20124;-84
2023/12/19 04:12:29;;;;;;;19.63;11.18;;;;;;;-2.74;92.42;101637.84;5047853;28;20049;-82
2023/12/19 04:14:56;;;;;;;14.63;8.70;;;;;;;-2.80;92.48;101642.63;5044178;28;20098;-85
2023/12/19 04:17:23;;;;;;;16.10;8.15;;;;;;;-2.82;92.41;101634.84;5043924;28;20045;-83
2023/12/19 04:19:50;;;;;;;16.90;9.30;;;;;;;-2.78;92.33;101627.31;5025757;28;20060;-83
2023/12/19 04:22:17;;;;;;;18.25;10.25;;;;;;;-3.00;92.22;101624.38;5042971;28;20053;-83
2023/12/19 04:24:43;;;;;;;15.43;9.35;;;;;;;-2.98;92.54;101619.34;5044244;28;20053;-83
2023/12/19 04:27:10;;;;;;;18.10;9.73;;;;;;;-2.88;92.59;101624.22;5042605;28;20049;-82
2023/12/19 04:29:38;;;;;;;18.05;10.27;;;;;;;-3.03;92.58;101624.19;5041669;28;20055;-85
2023/12/19 04:32:06;;;;;;;17.55;9.48;;;;;;;-2.98;92.87;101614.19;5040886;28;20068;-84
2023/12/19 04:34:33;;;;;;;16.45;8.93;;;;;;;-2.93;92.65;101614.47;5052482;28;20045;-82
2023/12/19 04:37:00;;;;;;;16.35;9.10;;;;;;;-2.88;92.62;101616.50;5039318;28;20069;-84
2023/12/19 04:39:27;;;;;;;18.20;9.30;;;;;;;-2.91;92.67;101638.56;5037941;28;20049;-83
2023/12/19 04:41:54;;;;;;;18.52;10.13;;;;;;;-2.88;92.59;101634.50;5039804;28;20060;-84
2023/12/19 04:44:22;;;;;;;20.95;10.43;;;;;;;-2.87;93.10;101637.94;5039025;28;20097;-82
2023/12/19 04:46:49;;;;;;;17.67;10.13;;;;;;;-2.88;92.83;101638.72;5040437;28;20049;-82
2023/12/19 04:49:16;;;;;;;19.52;10.30;;;;;;;-2.82;93.09;101634.84;5040911;28;20130;-84
2023/12/19 04:51:43;;;;;;;19.13;9.63;;;;;;;-2.82;93.11;101623.69;5038180;28;20107;-84
2023/12/19 04:54:10;;;;;;;18.95;9.30;;;;;;;-2.82;93.00;101610.84;5037088;28;20140;-85
2023/12/19 04:56:37;;;;;;;17.52;9.35;;;;;;;-2.82;93.21;101628.81;5042314;28;20060;-82
2023/12/19 04:59:04;;;;;;;16.80;10.10;;;;;;;-2.46;93.55;101621.47;5027933;28;20053;-82
2023/12/19 05:01:31;;;;;;;17.90;9.80;;;;;;;-2.58;93.34;101631.91;5037109;28;20049;-82
2023/12/19 05:03:57;;;;;;;18.83;9.60;;;;;;;-2.54;93.37;101622.72;5038145;28;20061;-84
2023/12/19 05:06:24;;;;;;;19.55;10.77;;;;;;;-2.17;93.42;101633.38;5035527;28;20117;-84
2023/12/19 05:08:51;;;;;;;21.23;11.13;;;;;;;-2.25;93.35;101624.34;5031516;28;20042;-82
2023/12/19 05:11:18;;;;;;;19.50;10.80;;;;;;;-2.14;93.08;101637.81;5028020;28;20064;-87
2023/12/19 05:13:45;;;;;;;20.15;10.02;;;;;;;-2.18;93.19;101635.88;5030563;28;20113;-82
2023/12/19 05:16:13;;;;;;;18.33;10.35;;;;;;;-2.21;93.06;101636.56;5044989;28;20140;-82
2023/12/19 05:18:41;;;;;;;18.55;9.18;;;;;;;-2.22;93.08;101626.19;5037235;28;20054;-83
2023/12/19 05:21:09;;;;;;;17.25;9.30;;;;;;;-2.15;92.63;101626.63;5042995;28;20045;-82
2023/12/19 05:23:37;;;;;;;16.92;9.30;;;;;;;-2.07;92.77;101631.31;5038272;28;20132;-83
2023/12/19 05:26:05;;;;;;;17.63;8.40;;;;;;;-2.02;92.47;101637.59;5036064;28;20051;-89
2023/12/19 05:28:34;;;;;;;17.85;7.68;;;;;;;-1.98;92.22;101621.53;5035912;28;20057;-83
2023/12/19 05:31:00;;;;;;;15.98;7.90;;;;;;;-1.98;91.86;101626.69;5035684;28;20049;-84
2023/12/19 05:33:29;;;;;;;16.35;8.43;;;;;;;-1.93;91.74;101639.00;5056763;28;20060;-83
2023/12/19 05:35:56;;;;;;;15.82;8.32;;;;;;;-1.94;91.71;101628.59;5026542;28;20140;-82
2023/12/19 05:38:23;;;;;;;15.48;7.53;;;;;;;-1.82;91.19;101639.56;5032650;28;20131;-82
2023/12/19 05:40:51;;;;;;;14.85;7.78;;;;;;;-1.97;91.36;101647.34;5022307;28;20132;-84
2023/12/19 05:43:18;;;;;;;19.15;9.75;;;;;;;-1.78;91.25;101654.38;5036619;28;20045;-83
2023/12/19 05:45:45;;;;;;;19.10;9.93;;;;;;;-1.88;91.04;101666.66;5038496;28;20091;-83
2023/12/19 05:48:12;;;;;;;26.38;12.52;;;;;;;-2.01;91.41;101662.53;5035647;28;20084;-83
2023/12/19 05:50:39;;;;;;;21.08;10.65;;;;;;;-1.79;91.24;101662.91;5033495;28;20041;-83
2023/12/19 05:53:06;;;;;;;23.50;12.80;;;;;;;-1.60;90.61;101669.06;5030951;28;20088;-82
2023/12/19 05:55:33;;;;;;;18.42;9.00;;;;;;;-1.48;90.27;101669.69;5026729;28;20693;-83
2023/12/19 05:58:00;;;;;;;18.45;8.70;;;;;;;-1.44;89.44;101676.78;5040434;28;20049;-83
2023/12/19 06:00:27;;;;;;;19.58;10.02;;;;;;;-1.37;89.24;101687.44;5034576;28;20041;-84
2023/12/19 06:02:53;;;;;;;21.20;9.50;;;;;;;-1.28;89.17;101693.06;5031324;28;20091;-82
2023/12/19 06:05:20;;;;;;;19.67;9.25;;;;;;;-1.32;89.46;101694.63;5030848;28;20054;-82
2023/12/19 06:07:47;;;;;;;16.80;7.72;;;;;;;-1.09;88.69;101695.78;5035723;28;20049;-84
2023/12/19 06:10:15;;;;;;;15.63;8.35;;;;;;;-1.11;88.67;101702.56;5031786;28;20045;-83
2023/12/19 06:12:42;;;;;;;16.08;8.82;;;;;;;-1.18;88.81;101692.75;5018487;28;20061;-84
2023/12/19 06:15:13;;;;;;;18.15;8.45;;;;;;;-1.19;89.02;101697.81;5010304;28;20058;-85
2023/12/19 06:17:42;;;;;;;16.73;9.20;;;;;;;-1.26;89.34;101684.63;5018423;28;20053;-83
2023/12/19 06:20:12;;;;;;;21.77;10.23;;;;;;;-1.28;89.57;101691.38;5053734;28;20049;-84
2023/12/19 06:22:42;;;;;;;21.92;10.77;;;;;;;-1.36;89.75;101684.03;5018726;28;20049;-86
2023/12/19 06:25:10;;;;;;;27.10;12.35;;;;;;;-1.36;89.74;101687.53;5030003;28;20099;-85
2023/12/19 06:27:42;;;;;;;20.15;9.93;;;;;;;-1.45;90.35;101695.66;5041892;28;20073;-84
2023/12/19 06:30:11;;;;;;;20.58;10.02;;;;;;;-1.48;90.89;101680.00;5038448;28;20099;-84
2023/12/19 06:32:53;;;;;;;28.00;12.85;;;;;;;-1.50;90.85;101686.78;5043472;28;20060;-84
2023/12/19 06:35:23;;;;;;;19.42;10.20;;;;;;;-1.59;91.14;101665.69;5041632;28;20057;-84
2023/12/19 06:37:52;;;;;;;19.00;9.82;;;;;;;-1.64;91.25;101672.25;5019193;28;20415;-83
2023/12/19 06:40:19;;;;;;;19.70;9.55;;;;;;;-1.73;91.21;101664.94;5034204;28;20046;-83
2023/12/19 06:42:47;;;;;;;21.95;9.73;;;;;;;-1.78;91.33;101667.25;5028265;28;20048;-86
2023/12/19 06:45:15;;;;;;;17.63;9.15;;;;;;;-1.72;91.32;101656.41;5036232;28;20084;-84
2023/12/19 06:47:42;;;;;;;17.98;9.40;;;;;;;-1.68;91.13;101637.75;5020179;28;20051;-86
2023/12/19 06:50:09;;;;;;;20.15;9.07;;;;;;;-1.71;90.95;101647.00;5029308;28;20554;-85
2023/12/19 06:52:36;;;;;;;16.98;8.20;;;;;;;-1.64;90.83;101646.53;5011848;28;20058;-87
2023/12/19 06:55:03;;;;;;;14.02;6.72;;;;;;;-1.53;90.38;101631.66;5041718;28;20444;-85
2023/12/19 06:57:33;;;;;;;15.88;7.50;;;;;;;-1.44;89.74;101648.47;5036815;28;20404;-84
2023/12/19 06:59:59;;;;;;;14.18;6.70;;;;;;;-1.46;89.35;101644.94;5044541;28;20132;-86
2023/12/19 07:02:26;;;;;;;13.52;6.53;;;;;;;-1.51;89.41;101642.91;5030803;28;20057;-85
2023/12/19 07:04:53;;;;;;;13.43;6.30;;;;;;;-1.59;89.51;101645.09;5036180;28;20064;-83
2023/12/19 07:07:20;;;;;;;14.02;6.40;;;;;;;-1.63;89.41;101646.59;5017828;28;20053;-82
2023/12/19 07:09:47;;;;;;;13.32;6.50;;;;;;;-1.64;89.58;101642.25;5034974;28;20052;-85
2023/12/19 07:12:14;;;;;;;13.25;6.10;;;;;;;-1.63;89.71;101658.59;5033901;28;20096;-85
2023/12/19 07:14:41;;;;;;;14.82;6.20;;;;;;;-1.58;89.66;101649.41;5037859;28;20049;-84
2023/12/19 07:17:09;;;;;;;12.52;6.32;;;;;;;-1.43;89.62;101641.66;5040614;28;20056;-84
2023/12/19 07:19:36;;;;;;;15.30;6.15;;;;;;;-1.42;89.52;101638.25;5030713;28;20076;-83
2023/12/19 07:22:03;;;;;;;14.45;6.10;;;;;;;-1.23;89.35;101633.25;5034798;28;20045;-84
2023/12/19 07:24:30;;;;;;;12.40;5.40;;;;;;;-1.16;89.16;101621.59;5016106;28;20053;-82
2023/12/19 07:26:57;;;;;;;11.23;5.57;;;;;;;-1.11;89.01;101621.84;5036984;28;20102;-82
2023/12/19 07:29:24;;;;;;;12.20;5.75;;;;;;;-1.12;89.37;101605.47;5038448;28;20049;-83
2023/12/19 07:31:51;;;;;;;12.07;5.65;;;;;;;-1.02;89.18;101598.22;5034790;28;20053;-83
2023/12/19 07:34:21;;;;;;;14.90;6.40;;;;;;;-0.90;88.97;101596.25;5033505;28;20055;-83
2023/12/19 07:36:48;;;;;;;13.57;6.22;;;;;;;-0.89;88.85;101591.16;5032004;28;20045;-83
2023/12/19 07:39:15;;;;;;;12.25;5.65;;;;;;;-0.92;88.59;101591.00;5033129;28;20119;-85
2023/12/19 07:41:42;;;;;;;13.32;6.28;;;;;;;-0.99;89.12;101588.06;5034791;28;20041;-84
2023/12/19 07:44:14;;;;;;;13.50;6.50;;;;;;;-0.95;89.13;101580.56;5041458;28;20051;-85
2023/12/19 07:46:42;;;;;;;13.00;6.20;;;;;;;-0.73;88.26;101584.19;5027960;28;20072;-84
2023/12/19 07:49:12;;;;;;;11.82;6.07;;;;;;;-0.61;87.34;101576.19;5016555;28;20562;-83
2023/12/19 07:51:39;;;;;;;12.05;5.90;;;;;;;-0.57;87.21;101570.38;5027179;28;20046;-84
2023/12/19 07:54:06;;;;;;;9.82;5.10;;;;;;;-0.50;86.62;101569.84;5033166;28;20056;-83
2023/12/19 07:56:41;;;;;;;13.35;6.50;;;;;;;-0.54;86.55;101578.25;5012904;28;20060;-82
2023/12/19 07:59:07;;;;;;;;;;;;;;;-0.65;87.02;101574.25;5030854;28;20120;-84
2023/12/19 08:01:34;;;;;;;12.38;6.55;;;;;;;-0.65;87.12;101574.25;5041166;28;19928;-83
2023/12/19 08:04:01;;;;;;;12.15;5.88;;;;;;;-0.66;87.33;101552.75;5033367;28;20551;-84
2023/12/19 08:06:28;;;;;;;12.48;5.95;;;;;;;-0.67;87.24;101555.25;5036166;28;20121;-82
2023/12/19 08:08:56;;;;;;;12.80;6.03;;;;;;;-0.68;86.97;101563.78;5037031;28;20068;-85
2023/12/19 08:11:23;;;;;;;14.00;6.35;;;;;;;-0.65;87.00;101567.44;5018318;28;20400;-82
2023/12/19 08:13:50;;;;;;;11.02;6.05;;;;;;;-0.65;87.21;101570.00;5035184;28;20049;-85
2023/12/19 08:16:17;;;;;;;13.80;6.28;;;;;;;-0.64;87.35;101566.59;5038651;28;20053;-82
2023/12/19 08:18:44;;;;;;;13.35;6.07;;;;;;;-0.59;87.23;101552.25;5031835;28;20390;-83
2023/12/19 08:21:12;;;;;;;12.82;6.20;;;;;;;-0.50;87.63;101572.44;5032454;28;20110;-84
2023/12/19 08:23:40;;;;;;;12.45;6.32;;;;;;;-0.40;87.25;101561.75;5024864;28;20041;-83
2023/12/19 08:26:10;;;;;;;14.77;7.35;;;;;;;-0.29;87.23;101549.38;5031733;28;20484;-82
2023/12/19 08:28:37;;;;;;;13.43;6.57;;;;;;;-0.22;86.66;101559.16;5034160;28;20077;-83
2023/12/19 08:31:04;;;;;;;12.70;5.90;;;;;;;-0.11;86.89;101554.47;5031949;28;20077;-82
2023/12/19 08:33:31;;;;;;;11.95;5.85;;;;;;;-0.03;86.45;101555.72;5032163;28;20083;-83
2023/12/19 08:35:57;;;;;;;12.88;6.82;;;;;;;0.02;86.19;101555.94;5026999;28;20116;-82
2023/12/19 08:38:24;;;;;;;14.90;6.47;;;;;;;0.06;86.25;101551.78;5031629;28;20041;-83
2023/12/19 08:40:51;;;;;;;10.95;5.90;;;;;;;0.09;86.21;101546.78;5032945;28;20049;-82
2023/12/19 08:43:19;;;;;;;12.55;6.47;;;;;;;0.09;85.93;101549.38;5032233;28;20507;-82
2023/12/19 08:45:48;;;;;;;12.30;5.85;;;;;;;0.09;85.50;101542.50;5035415;28;20049;-85
2023/12/19 08:48:16;;;;;;;14.15;5.80;;;;;;;0.27;85.90;101552.75;5034458;28;20053;-83
2023/12/19 08:50:44;;;;;;;9.90;4.82;;;;;;;0.43;85.39;101540.53;5034575;28;20045;-83
2023/12/19 08:53:12;;;;;;;10.95;5.47;;;;;;;0.44;84.48;101560.38;5034343;28;20169;-84
2023/12/19 08:55:42;;;;;;;9.65;4.80;;;;;;;0.47;84.79;101560.50;5034690;28;20041;-82
2023/12/19 08:58:09;;;;;;;13.13;5.45;;;;;;;0.59;85.13;101570.50;5041629;28;20049;-82
2023/12/19 09:00:36;;;;;;;8.95;4.30;;;;;;;0.65;84.55;101558.75;5026783;28;20045;-83
2023/12/19 09:03:05;;;;;;;10.65;4.70;;;;;;;0.65;84.71;101561.31;5037547;28;20045;-81
2023/12/19 09:05:33;;;;;;;11.48;5.20;;;;;;;0.67;84.38;101539.00;5036722;28;20538;-82
2023/12/19 09:08:00;;;;;;;9.77;4.75;;;;;;;0.74;84.51;101541.84;5036625;28;20060;-84
2023/12/19 09:10:29;;;;;;;10.75;4.53;;;;;;;0.77;84.58;101529.94;5042691;28;20077;-83
2023/12/19 09:12:56;;;;;;;9.45;3.85;;;;;;;0.83;84.69;101519.00;5026738;28;20109;-82
2023/12/19 09:15:23;;;;;;;11.52;4.63;;;;;;;0.90;84.90;101514.94;5035515;28;20050;-84
2023/12/19 09:17:50;;;;;;;9.55;4.10;;;;;;;0.89;84.49;101511.47;5036999;28;20536;-81
2023/12/19 09:20:17;;;;;;;7.75;3.88;;;;;;;0.92;84.14;101496.09;5035852;28;20041;-84
2023/12/19 09:22:43;;;;;;;8.82;4.38;;;;;;;0.93;83.91;101497.88;5019875;28;20523;-84
2023/12/19 09:25:14;;;;;;;8.55;3.78;;;;;;;0.96;84.21;101502.28;5015868;28;20053;-82
2023/12/19 09:27:43;;;;;;;6.57;3.42;;;;;;;1.01;84.03;101514.59;5001656;28;20049;-82
2023/12/19 09:30:11;;;;;;;7.97;3.75;;;;;;;1.12;84.18;101521.91;5036771;28;20049;-84
2023/12/19 09:32:42;;;;;;;9.65;3.60;;;;;;;1.17;83.64;101522.94;5035003;28;20569;-83
2023/12/19 09:35:12;;;;;;;6.82;3.15;;;;;;;1.20;83.51;101515.31;5030920;28;20046;-84
2023/12/19 09:37:39;;;;;;;8.77;3.47;;;;;;;1.25;83.32;101512.94;5034023;28;20116;-84
2023/12/19 09:40:17;;;;;;;5.68;3.33;;;;;;;1.34;83.17;101509.00;5036571;28;20472;-83
2023/12/19 09:42:44;;;;;;;5.55;2.90;;;;;;;1.44;83.14;101519.72;5034597;28;20041;-83
2023/12/19 09:45:14;;;;;;;6.25;3.33;;;;;;;1.49;82.81;101518.19;5017105;28;20045;-83
2023/12/19 09:47:48;;;;;;;7.35;3.30;;;;;;;1.54;82.28;101529.59;5031598;28;20064;-83
2023/12/19 09:50:15;;;;;;;8.05;3.45;;;;;;;1.67;82.45;101537.00;5005424;28;20041;-82
2023/12/19 09:52:42;;;;;;;6.25;3.10;;;;;;;1.71;81.99;101545.78;5022255;28;20065;-86
2023/12/19 09:55:10;;;;;;;6.80;3.55;;;;;;;1.86;81.93;101545.50;5023566;28;20073;-83
2023/12/19 09:57:38;;;;;;;6.38;3.25;;;;;;;1.95;82.17;101534.59;5036258;28;20061;-84
2023/12/19 10:00:08;;;;;;;8.27;3.20;;;;;;;1.99;82.48;101531.31;5004520;28;20127;-84
2023/12/19 10:02:36;;;;;;;6.90;2.83;;;;;;;2.28;82.12;101528.91;5030410;28;20037;-84
2023/12/19 10:05:04;;;;;;;6.68;3.05;;;;;;;2.52;82.61;101534.06;5035221;28;20120;-83
2023/12/19 10:07:31;;;;;;;5.75;2.88;;;;;;;2.46;81.40;101523.50;5021290;28;20042;-83
2023/12/19 10:10:02;;;;;;;7.15;2.72;;;;;;;2.60;81.83;101501.53;5032260;28;20159;-83
2023/12/19 10:12:31;;;;;;;4.05;2.35;;;;;;;2.71;80.54;101492.44;5018950;28;20096;-85
2023/12/19 10:15:13;;;;;;;5.15;2.38;;;;;;;2.84;81.53;101491.13;5015611;28;20057;-84
2023/12/19 10:18:03;;;;;;;5.55;2.47;;;;;;;2.64;80.59;101482.69;5038962;28;20049;-83
2023/12/19 10:20:30;;;;;;;6.47;2.33;;;;;;;2.67;81.34;101479.31;5029211;28;20041;-83
2023/12/19 10:23:06;;;;;;;13.60;3.35;;;;;;;2.66;81.28;101481.00;5035655;28;20045;-83
2023/12/19 10:25:34;;;;;;;6.47;2.47;;;;;;;2.62;81.05;101479.13;5033154;28;20037;-84
2023/12/19 10:28:13;;;;;;;4.20;2.33;;;;;;;2.70;82.15;101472.50;5027025;28;20049;-87
2023/12/19 10:30:42;;;;;;;3.90;1.88;;;;;;;2.70;81.69;101474.22;5026941;28;20049;-83
2023/12/19 10:33:12;;;;;;;3.72;1.95;;;;;;;2.66;81.51;101475.81;5033648;28;20049;-83
2023/12/19 10:35:41;;;;;;;3.90;1.85;;;;;;;2.46;81.17;101466.50;5042215;28;20052;-83
2023/12/19 10:38:08;;;;;;;5.55;2.05;;;;;;;2.53;81.51;101463.28;5029326;28;20069;-84
2023/12/19 10:40:36;;;;;;;4.00;2.08;;;;;;;2.52;80.79;101453.75;5026306;28;20068;-83
2023/12/19 10:43:03;;;;;;;4.22;2.08;;;;;;;2.55;80.60;101440.88;4996785;28;20519;-83
2023/12/19 10:45:31;;;;;;;3.00;1.73;;;;;;;2.56;81.63;101437.47;5035854;28;20053;-83
2023/12/19 10:47:58;;;;;;;5.97;2.25;;;;;;;2.49;81.49;101432.91;5055798;28;20091;-85
2023/12/19 10:50:27;;;;;;;4.30;2.38;;;;;;;2.39;80.69;101426.53;5032863;28;20073;-83
2023/12/19 10:53:00;;;;;;;4.05;2.00;;;;;;;2.38;80.99;101417.00;5022095;28;20076;-85
2023/12/19 10:55:36;;;;;;;3.42;1.80;;;;;;;2.41;80.87;101417.09;5053630;28;20053;-81
2023/12/19 10:58:04;;;;;;;3.78;1.70;;;;;;;2.43;80.77;101399.91;5020104;28;20093;-81
2023/12/19 11:00:34;;;;;;;2.97;1.60;;;;;;;2.44;80.59;101406.84;5036259;28;20049;-83
2023/12/19 11:03:18;;;;;;;4.80;1.73;;;;;;;2.54;81.46;101385.59;5025798;28;20119;-85
2023/12/19 11:05:46;;;;;;;4.32;2.00;;;;;;;2.51;80.66;101382.03;5018264;28;20091;-86
2023/12/19 11:08:19;;;;;;;3.58;1.88;;;;;;;2.56;80.88;101377.88;5034069;28;20049;-81
2023/12/19 11:10:58;;;;;;;3.22;1.60;;;;;;;2.57;80.44;101380.50;5011271;28;20058;-83
2023/12/19 11:13:26;;;;;;;2.65;1.38;;;;;;;2.63;80.85;101377.22;5014232;28;20056;-86
2023/12/19 11:16:03;;;;;;;3.42;1.77;;;;;;;2.57;80.39;101362.38;5016490;28;20107;-84
2023/12/19 11:18:37;;;;;;;3.22;1.42;;;;;;;2.54;80.29;101364.00;5012268;28;20478;-83
2023/12/19 11:21:09;;;;;;;3.22;1.92;;;;;;;2.59;80.98;101365.91;5038452;28;20124;-83
2023/12/19 11:23:44;;;;;;;3.03;1.58;;;;;;;2.64;80.92;101349.63;5016876;28;20053;-86